createdAt,value
2019-05-22T00:00:23.882Z,44.40
2019-05-22T00:01:23.891Z,44.30
2019-05-22T00:02:23.882Z,43.60
2019-05-22T00:03:23.861Z,44.20
2019-05-22T00:04:23.861Z,45.00
2019-05-22T00:05:23.836Z,44.20
2019-05-22T00:06:23.849Z,43.90
2019-05-22T00:07:23.811Z,42.80
2019-05-22T00:08:23.792Z,43.30
2019-05-22T00:09:23.793Z,42.90
2019-05-22T00:10:23.793Z,44.10
2019-05-22T00:11:23.783Z,44.30
2019-05-22T00:12:23.750Z,46.60
2019-05-22T00:13:23.779Z,46.60
2019-05-22T00:14:23.752Z,45.70
2019-05-22T00:15:23.723Z,44.80
2019-05-22T00:16:23.736Z,45.10
2019-05-22T00:17:23.700Z,45.50
2019-05-22T00:18:23.694Z,44.80
2019-05-22T00:19:23.682Z,45.90
2019-05-22T00:20:23.664Z,44.60
2019-05-22T00:21:23.668Z,44.30
2019-05-22T00:22:23.660Z,43.00
2019-05-22T00:23:23.639Z,44.60
2019-05-22T00:24:23.613Z,44.90
2019-05-22T00:25:23.612Z,42.90
2019-05-22T00:26:23.611Z,39.80
2019-05-22T00:27:23.596Z,39.20
2019-05-22T00:28:23.610Z,39.40
2019-05-22T00:29:23.572Z,40.40
2019-05-22T00:30:23.564Z,40.80
2019-05-22T00:31:23.552Z,42.10
2019-05-22T00:32:23.542Z,41.00
2019-05-22T00:33:23.532Z,39.90
2019-05-22T00:34:23.536Z,40.10
2019-05-22T00:35:23.559Z,40.60
2019-05-22T00:36:23.496Z,40.40
2019-05-22T00:37:23.518Z,41.50
2019-05-22T00:38:23.501Z,42.30
2019-05-22T00:39:23.462Z,41.10
2019-05-22T00:40:23.482Z,40.30
2019-05-22T00:41:23.440Z,41.00
2019-05-22T00:42:23.422Z,42.80
2019-05-22T00:43:23.423Z,40.90
2019-05-22T00:44:23.417Z,40.80
2019-05-22T00:45:23.391Z,41.70
2019-05-22T00:46:23.388Z,41.80
2019-05-22T00:47:23.370Z,41.30
2019-05-22T00:48:23.371Z,41.00
2019-05-22T00:49:23.371Z,41.50
2019-05-22T00:50:23.341Z,41.30
2019-05-22T00:51:23.332Z,40.50
2019-05-22T00:52:23.329Z,41.10
2019-05-22T00:53:23.334Z,40.20
2019-05-22T00:54:23.307Z,40.90
2019-05-22T00:55:23.578Z,39.50
2019-05-22T00:56:23.292Z,38.00
2019-05-22T00:57:23.259Z,38.50
2019-05-22T00:58:23.251Z,37.10
2019-05-22T00:59:23.251Z,38.80
2019-05-22T01:00:23.229Z,37.50
2019-05-22T01:01:23.262Z,38.00
2019-05-22T01:02:23.222Z,36.40
2019-05-22T01:03:23.212Z,36.70
2019-05-22T01:04:23.206Z,38.10
2019-05-22T01:05:23.215Z,36.20
2019-05-22T01:06:23.191Z,35.90
2019-05-22T01:07:23.177Z,35.30
2019-05-22T01:08:23.168Z,35.40
2019-05-22T01:09:23.135Z,33.80
2019-05-22T01:10:23.142Z,34.40
2019-05-22T01:11:23.140Z,34.10
2019-05-22T01:12:23.102Z,34.10
2019-05-22T01:13:23.080Z,34.10
2019-05-22T01:14:23.091Z,33.60
2019-05-22T01:15:23.089Z,34.30
2019-05-22T01:16:23.068Z,32.80
2019-05-22T01:17:23.057Z,33.30
2019-05-22T01:18:23.030Z,33.90
2019-05-22T01:19:23.055Z,34.40
2019-05-22T01:20:23.022Z,34.80
2019-05-22T01:21:23.017Z,32.80
2019-05-22T01:22:23.012Z,31.20
2019-05-22T01:23:22.978Z,30.30
2019-05-22T01:24:22.993Z,30.60
2019-05-22T01:25:22.967Z,30.80
2019-05-22T01:26:22.969Z,30.90
2019-05-22T01:27:22.958Z,31.00
2019-05-22T01:28:22.938Z,30.20
2019-05-22T01:29:22.918Z,32.20
2019-05-22T01:30:22.932Z,30.70
2019-05-22T01:31:22.913Z,30.20
2019-05-22T01:32:22.904Z,29.40
2019-05-22T01:33:22.878Z,29.70
2019-05-22T01:34:22.859Z,29.00
2019-05-22T01:35:22.848Z,28.80
2019-05-22T01:36:22.860Z,30.20
2019-05-22T01:37:22.850Z,28.60
2019-05-22T01:38:22.839Z,28.50
2019-05-22T01:39:22.818Z,29.40
2019-05-22T01:40:22.797Z,28.60
2019-05-22T01:41:22.799Z,29.90
2019-05-22T01:42:22.781Z,30.90
2019-05-22T01:43:22.769Z,31.20
2019-05-22T01:44:22.777Z,30.90
2019-05-22T01:45:22.750Z,31.60
2019-05-22T01:46:22.750Z,32.40
2019-05-22T01:47:22.718Z,31.10
2019-05-22T01:48:22.715Z,32.80
2019-05-22T01:49:22.730Z,32.20
2019-05-22T01:50:22.702Z,31.10
2019-05-22T01:51:22.704Z,31.80
2019-05-22T01:52:22.666Z,32.60
2019-05-22T01:53:22.662Z,31.70
2019-05-22T01:54:22.650Z,32.20
2019-05-22T01:55:22.634Z,32.20
2019-05-22T01:56:22.659Z,33.10
2019-05-22T01:57:22.615Z,33.50
2019-05-22T01:58:22.617Z,33.70
2019-05-22T01:59:22.598Z,33.60
2019-05-22T02:00:22.596Z,31.80
2019-05-22T02:01:22.608Z,33.20
2019-05-22T02:02:22.589Z,32.70
2019-05-22T02:03:22.558Z,31.20
2019-05-22T02:04:22.536Z,31.30
2019-05-22T02:05:22.530Z,32.00
2019-05-22T02:06:22.521Z,32.60
2019-05-22T02:07:22.528Z,30.90
2019-05-22T02:08:22.508Z,29.50
2019-05-22T02:09:22.497Z,30.10
2019-05-22T02:10:22.485Z,30.00
2019-05-22T02:11:22.480Z,29.30
2019-05-22T02:12:22.450Z,30.00
2019-05-22T02:13:22.470Z,29.80
2019-05-22T02:14:22.452Z,29.10
2019-05-22T02:15:22.430Z,29.00
2019-05-22T02:16:22.417Z,28.70
2019-05-22T02:17:22.411Z,30.00
2019-05-22T02:18:22.431Z,29.00
2019-05-22T02:19:22.377Z,31.50
2019-05-22T02:20:22.365Z,31.10
2019-05-22T02:21:22.356Z,30.20
2019-05-22T02:22:22.348Z,31.30
2019-05-22T02:23:22.345Z,32.70
2019-05-22T02:24:22.348Z,30.40
2019-05-22T02:25:22.322Z,31.20
2019-05-22T02:26:22.317Z,31.70
2019-05-22T02:27:22.299Z,30.70
2019-05-22T02:28:22.309Z,30.50
2019-05-22T02:29:22.286Z,30.80
2019-05-22T02:30:22.272Z,29.80
2019-05-22T02:31:22.263Z,29.00
2019-05-22T02:32:22.250Z,27.60
2019-05-22T02:33:22.250Z,26.40
2019-05-22T02:34:22.218Z,25.60
2019-05-22T02:35:22.224Z,25.00
2019-05-22T02:36:22.200Z,23.70
2019-05-22T02:37:22.199Z,24.90
2019-05-22T02:38:22.206Z,24.30
2019-05-22T02:39:22.169Z,25.00
2019-05-22T02:40:22.175Z,23.70
2019-05-22T02:41:22.145Z,25.00
2019-05-22T02:42:22.123Z,23.20
2019-05-22T02:43:22.138Z,24.70
2019-05-22T02:44:22.108Z,23.80
2019-05-22T02:45:22.117Z,23.70
2019-05-22T02:46:22.077Z,23.90
2019-05-22T02:47:22.095Z,24.20
2019-05-22T02:48:22.061Z,24.60
2019-05-22T02:49:22.057Z,24.30
2019-05-22T02:50:22.065Z,21.30
2019-05-22T02:51:22.035Z,17.90
2019-05-22T02:52:22.037Z,19.10
2019-05-22T02:53:22.058Z,18.10
2019-05-22T02:54:22.027Z,19.30
2019-05-22T02:55:22.026Z,19.00
2019-05-22T02:56:21.978Z,18.10
2019-05-22T02:57:21.963Z,18.30
2019-05-22T02:58:21.970Z,17.80
2019-05-22T02:59:21.942Z,17.80
2019-05-22T03:00:21.966Z,16.60
2019-05-22T03:01:21.947Z,17.50
2019-05-22T03:02:21.914Z,15.90
2019-05-22T03:03:21.908Z,16.80
2019-05-22T03:04:21.917Z,17.20
2019-05-22T03:05:21.881Z,16.60
2019-05-22T03:06:22.880Z,15.00
2019-05-22T03:07:21.897Z,17.10
2019-05-22T03:08:22.887Z,16.20
2019-05-22T03:09:21.878Z,16.60
2019-05-22T03:10:21.836Z,16.00
2019-05-22T03:11:21.815Z,14.50
2019-05-22T03:12:21.819Z,12.60
2019-05-22T03:13:21.839Z,14.30
2019-05-22T03:14:21.786Z,12.80
2019-05-22T03:15:22.589Z,13.30
2019-05-22T03:16:21.802Z,13.40
2019-05-22T03:17:21.782Z,10.40
2019-05-22T03:18:21.748Z,12.10
2019-05-22T03:19:21.747Z,12.40
2019-05-22T03:20:21.766Z,11.50
2019-05-22T03:21:21.709Z,10.70
2019-05-22T03:22:21.715Z,11.20
2019-05-22T03:23:21.693Z,11.10
2019-05-22T03:24:21.699Z,11.10
2019-05-22T03:25:21.705Z,11.50
2019-05-22T03:26:22.127Z,11.50
2019-05-22T03:27:21.662Z,11.40
2019-05-22T03:28:21.690Z,12.80
2019-05-22T03:29:21.652Z,12.50
2019-05-22T03:30:21.697Z,12.00
2019-05-22T03:31:21.629Z,12.20
2019-05-22T03:32:21.628Z,12.70
2019-05-22T03:33:21.575Z,13.00
2019-05-22T03:34:21.596Z,12.10
2019-05-22T03:35:21.567Z,11.90
2019-05-22T03:36:21.628Z,11.80
2019-05-22T03:37:21.555Z,11.70
2019-05-22T03:38:21.551Z,12.00
2019-05-22T03:39:21.560Z,12.40
2019-05-22T03:40:21.506Z,12.30
2019-05-22T03:41:21.512Z,11.20
2019-05-22T03:42:21.485Z,11.20
2019-05-22T03:43:21.465Z,11.00
2019-05-22T03:44:23.169Z,11.80
2019-05-22T03:45:21.445Z,10.90
2019-05-22T03:46:21.524Z,10.90
2019-05-22T03:47:21.462Z,10.80
2019-05-22T03:48:21.421Z,10.90
2019-05-22T03:49:29.827Z,11.50
2019-05-22T03:50:22.412Z,9.80
2019-05-22T03:51:21.435Z,9.70
2019-05-22T03:52:21.390Z,10.60
2019-05-22T03:53:21.374Z,9.50
2019-05-22T03:54:21.392Z,10.60
2019-05-22T03:55:21.357Z,10.60
2019-05-22T03:56:21.351Z,10.40
2019-05-22T03:57:23.093Z,9.80
2019-05-22T03:58:21.326Z,10.40
2019-05-22T03:59:21.389Z,10.20
2019-05-22T04:00:21.289Z,9.80
2019-05-22T04:01:21.279Z,9.90
2019-05-22T04:02:21.285Z,10.30
2019-05-22T04:03:21.419Z,9.50
2019-05-22T04:04:21.257Z,10.10
2019-05-22T04:05:21.304Z,10.80
2019-05-22T04:06:21.223Z,10.50
2019-05-22T04:07:21.219Z,10.80
2019-05-22T04:08:21.222Z,10.90
2019-05-22T04:09:21.253Z,12.80
2019-05-22T04:10:21.191Z,11.40
2019-05-22T04:11:21.182Z,12.60
2019-05-22T04:12:22.327Z,12.90
2019-05-22T04:13:21.973Z,13.10
2019-05-22T04:14:21.158Z,13.60
2019-05-22T04:15:21.288Z,13.80
2019-05-22T04:16:21.134Z,14.80
2019-05-22T04:17:21.156Z,14.60
2019-05-22T04:18:22.981Z,14.50
2019-05-22T04:19:21.147Z,14.60
2019-05-22T04:20:21.115Z,15.90
2019-05-22T04:21:21.066Z,16.50
2019-05-22T04:22:21.088Z,15.20
2019-05-22T04:23:21.045Z,15.40
2019-05-22T04:24:21.043Z,16.20
2019-05-22T04:25:21.038Z,15.80
2019-05-22T04:26:21.011Z,16.50
2019-05-22T04:27:21.000Z,16.50
2019-05-22T04:28:21.472Z,17.30
2019-05-22T04:29:20.994Z,17.10
2019-05-22T04:30:21.001Z,18.20
2019-05-22T04:31:20.973Z,16.90
2019-05-22T04:32:20.951Z,17.60
2019-05-22T04:33:20.939Z,18.80
2019-05-22T04:34:21.050Z,19.00
2019-05-22T04:35:20.914Z,19.70
2019-05-22T04:36:20.932Z,19.70
2019-05-22T04:37:20.906Z,20.00
2019-05-22T04:38:20.914Z,19.40
2019-05-22T04:39:20.892Z,20.50
2019-05-22T04:40:21.901Z,20.00
2019-05-22T04:41:20.872Z,21.00
2019-05-22T04:42:20.851Z,21.80
2019-05-22T04:43:21.079Z,21.10
2019-05-22T04:44:20.812Z,22.00
2019-05-22T04:45:21.872Z,22.70
2019-05-22T04:46:20.845Z,22.30
2019-05-22T04:47:20.786Z,21.00
2019-05-22T04:48:20.839Z,22.70
2019-05-22T04:49:21.412Z,23.30
2019-05-22T04:50:21.327Z,23.40
2019-05-22T04:51:20.766Z,22.60
2019-05-22T04:52:20.730Z,24.20
2019-05-22T04:53:20.708Z,24.00
2019-05-22T04:54:20.742Z,24.10
2019-05-22T04:55:20.721Z,23.30
2019-05-22T04:56:20.700Z,25.10
2019-05-22T04:57:20.661Z,25.00
2019-05-22T04:58:20.665Z,24.70
2019-05-22T04:59:20.645Z,25.20
2019-05-22T05:00:20.688Z,24.40
2019-05-22T05:01:20.698Z,25.80
2019-05-22T05:02:20.633Z,26.00
2019-05-22T05:03:20.623Z,25.20
2019-05-22T05:04:20.622Z,24.50
2019-05-22T05:05:21.962Z,25.40
2019-05-22T05:06:23.034Z,23.80
2019-05-22T05:07:20.741Z,25.40
2019-05-22T05:08:20.593Z,23.70
2019-05-22T05:09:21.342Z,23.40
2019-05-22T05:10:20.575Z,22.40
2019-05-22T05:11:20.522Z,20.60
2019-05-22T05:12:20.541Z,22.20
2019-05-22T05:13:20.544Z,20.90
2019-05-22T05:14:20.535Z,22.60
2019-05-22T05:15:20.532Z,23.70
2019-05-22T05:16:20.481Z,23.10
2019-05-22T05:17:20.499Z,23.30
2019-05-22T05:18:20.482Z,23.10
2019-05-22T05:19:20.437Z,22.70
2019-05-22T05:20:22.691Z,21.80
2019-05-22T05:21:20.432Z,22.00
2019-05-22T05:22:20.409Z,21.40
2019-05-22T05:23:21.450Z,19.50
2019-05-22T05:24:20.372Z,19.20
2019-05-22T05:25:20.369Z,19.00
2019-05-22T05:26:20.394Z,18.10
2019-05-22T05:27:20.369Z,18.40
2019-05-22T05:28:20.331Z,16.40
2019-05-22T05:29:20.319Z,18.00
2019-05-22T05:30:21.378Z,18.50
2019-05-22T05:31:20.388Z,19.20
2019-05-22T05:32:20.298Z,18.70
2019-05-22T05:33:20.302Z,18.90
2019-05-22T05:34:20.307Z,19.00
2019-05-22T05:35:20.263Z,17.50
2019-05-22T05:36:20.248Z,18.40
2019-05-22T05:37:20.257Z,18.40
2019-05-22T05:38:20.231Z,18.20
2019-05-22T05:39:20.252Z,17.70
2019-05-22T05:40:20.210Z,17.40
2019-05-22T05:41:20.210Z,17.30
2019-05-22T05:42:20.187Z,17.70
2019-05-22T05:43:20.218Z,17.90
2019-05-22T05:44:20.171Z,18.50
2019-05-22T05:45:20.203Z,19.30
2019-05-22T05:46:20.209Z,19.20
2019-05-22T05:47:20.138Z,18.60
2019-05-22T05:48:20.117Z,19.20
2019-05-22T05:49:20.156Z,19.40
2019-05-22T05:50:20.149Z,19.60
2019-05-22T05:51:20.107Z,19.30
2019-05-22T05:52:20.071Z,19.90
2019-05-22T05:53:20.067Z,19.90
2019-05-22T05:54:20.078Z,20.00
2019-05-22T05:55:20.036Z,19.10
2019-05-22T05:56:20.129Z,20.20
2019-05-22T05:57:20.026Z,20.30
2019-05-22T05:58:20.031Z,20.00
2019-05-22T05:59:20.013Z,20.30
2019-05-22T06:00:19.977Z,19.20
2019-05-22T06:01:20.006Z,19.80
2019-05-22T06:02:19.959Z,19.10
2019-05-22T06:03:20.314Z,19.50
2019-05-22T06:04:33.599Z,20.00
2019-05-22T06:05:20.929Z,18.50
2019-05-22T06:06:20.008Z,20.20
2019-05-22T06:07:19.915Z,18.90
2019-05-22T06:08:19.885Z,19.60
2019-05-22T06:09:19.907Z,19.10
2019-05-22T06:10:19.878Z,19.60
2019-05-22T06:11:19.963Z,19.40
2019-05-22T06:12:19.866Z,18.80
2019-05-22T06:13:19.838Z,19.20
2019-05-22T06:14:19.832Z,19.50
2019-05-22T06:15:19.901Z,18.60
2019-05-22T06:16:20.665Z,19.00
2019-05-22T06:17:19.916Z,16.60
2019-05-22T06:18:19.787Z,18.10
2019-05-22T06:19:20.058Z,17.30
2019-05-22T06:20:19.779Z,16.50
2019-05-22T06:21:19.793Z,17.20
2019-05-22T06:22:19.846Z,16.80
2019-05-22T06:23:21.182Z,17.30
2019-05-22T06:24:20.768Z,17.40
2019-05-22T06:25:19.777Z,15.90
2019-05-22T06:26:19.816Z,16.70
2019-05-22T06:27:20.238Z,15.20
2019-05-22T06:28:20.220Z,14.60
2019-05-22T06:29:19.741Z,15.50
2019-05-22T06:30:19.721Z,14.90
2019-05-22T06:31:19.783Z,15.10
2019-05-22T06:32:20.677Z,14.70
2019-05-22T06:33:19.741Z,13.90
2019-05-22T06:34:21.326Z,13.50
2019-05-22T06:35:19.655Z,14.10
2019-05-22T06:36:19.707Z,13.70
2019-05-22T06:37:19.712Z,14.10
2019-05-22T06:38:19.669Z,13.10
2019-05-22T06:39:19.636Z,12.90
2019-05-22T06:40:19.629Z,13.30
2019-05-22T06:41:19.631Z,13.00
2019-05-22T06:42:19.601Z,11.30
2019-05-22T06:43:20.399Z,11.40
2019-05-22T06:44:20.022Z,11.50
2019-05-22T06:45:19.726Z,12.00
2019-05-22T06:46:19.558Z,12.70
2019-05-22T06:47:19.508Z,12.20
2019-05-22T06:48:19.628Z,12.80
2019-05-22T06:49:19.532Z,11.40
2019-05-22T06:50:19.545Z,11.50
2019-05-22T06:51:19.912Z,11.00
2019-05-22T06:52:19.452Z,11.70
2019-05-22T06:53:19.444Z,10.70
2019-05-22T06:54:19.440Z,10.80
2019-05-22T06:55:19.382Z,10.90
2019-05-22T06:56:23.595Z,9.90
2019-05-22T06:57:19.458Z,10.40
2019-05-22T06:58:19.531Z,9.90
2019-05-22T06:59:19.426Z,10.20
2019-05-22T07:00:19.336Z,9.80
2019-05-22T07:01:19.359Z,9.80
2019-05-22T07:02:20.326Z,10.10
2019-05-22T07:03:19.389Z,9.30
2019-05-22T07:04:19.377Z,8.70
2019-05-22T07:05:19.357Z,9.20
2019-05-22T07:06:19.377Z,9.30
2019-05-22T07:07:19.302Z,8.70
2019-05-22T07:08:19.469Z,9.80
2019-05-22T07:09:19.309Z,8.80
2019-05-22T07:10:19.334Z,8.10
2019-05-22T07:11:19.281Z,8.50
2019-05-22T07:12:19.263Z,7.90
2019-05-22T07:13:19.208Z,8.60
2019-05-22T07:14:19.213Z,8.10
2019-05-22T07:15:19.229Z,8.00
2019-05-22T07:16:19.162Z,9.70
2019-05-22T07:17:19.154Z,8.60
2019-05-22T07:18:19.167Z,8.80
2019-05-22T07:19:19.146Z,8.70
2019-05-22T07:20:19.153Z,7.70
2019-05-22T07:21:32.080Z,7.50
2019-05-22T07:22:20.094Z,7.40
2019-05-22T07:23:19.184Z,7.60
2019-05-22T07:24:19.100Z,7.30
2019-05-22T07:25:19.095Z,7.30
2019-05-22T07:26:19.199Z,7.70
2019-05-22T07:27:19.082Z,7.20
2019-05-22T07:28:19.133Z,6.80
2019-05-22T07:29:19.234Z,7.30
2019-05-22T07:30:19.050Z,7.90
2019-05-22T07:31:19.092Z,7.20
2019-05-22T07:32:19.045Z,7.10
2019-05-22T07:33:19.214Z,8.00
2019-05-22T07:34:18.970Z,7.20
2019-05-22T07:35:18.992Z,7.70
2019-05-22T07:36:19.034Z,7.30
2019-05-22T07:37:18.932Z,7.70
2019-05-22T07:38:18.941Z,7.80
2019-05-22T07:39:19.977Z,7.70
2019-05-22T07:40:19.328Z,7.60
2019-05-22T07:41:18.980Z,7.80
2019-05-22T07:42:18.993Z,8.00
2019-05-22T07:43:18.978Z,7.40
2019-05-22T07:44:18.977Z,6.80
2019-05-22T07:45:18.906Z,7.40
2019-05-22T07:46:18.852Z,8.70
2019-05-22T07:47:18.895Z,6.90
2019-05-22T07:48:18.842Z,6.20
2019-05-22T07:49:18.803Z,7.30
2019-05-22T07:50:18.824Z,6.80
2019-05-22T07:51:18.795Z,6.50
2019-05-22T07:52:18.777Z,7.20
2019-05-22T07:53:18.796Z,6.20
2019-05-22T07:54:22.412Z,7.20
2019-05-22T07:55:18.791Z,7.00
2019-05-22T07:56:19.324Z,6.70
2019-05-22T07:57:19.028Z,6.70
2019-05-22T07:58:19.047Z,7.10
2019-05-22T07:59:18.738Z,6.30
2019-05-22T08:00:18.765Z,6.60
2019-05-22T08:01:18.704Z,6.90
2019-05-22T08:02:18.714Z,6.40
2019-05-22T08:03:18.659Z,6.90
2019-05-22T08:04:18.654Z,6.40
2019-05-22T08:05:18.644Z,7.00
2019-05-22T08:06:18.644Z,6.90
2019-05-22T08:07:18.631Z,6.70
2019-05-22T08:08:18.942Z,6.20
2019-05-22T08:09:19.147Z,6.00
2019-05-22T08:10:19.166Z,6.90
2019-05-22T08:11:18.824Z,6.50
2019-05-22T08:12:18.715Z,6.50
2019-05-22T08:13:18.612Z,6.70
2019-05-22T08:14:18.582Z,6.40
2019-05-22T08:15:18.634Z,6.30
2019-05-22T08:16:18.504Z,7.20
2019-05-22T08:17:18.615Z,7.30
2019-05-22T08:18:18.564Z,7.50
2019-05-22T08:19:18.672Z,6.70
2019-05-22T08:20:18.677Z,6.40
2019-05-22T08:21:18.542Z,6.30
2019-05-22T08:22:18.545Z,6.50
2019-05-22T08:23:18.576Z,6.40
2019-05-22T08:24:18.526Z,6.60
2019-05-22T08:25:18.439Z,6.30
2019-05-22T08:26:19.348Z,6.50
2019-05-22T08:27:18.448Z,6.20
2019-05-22T08:28:18.392Z,6.60
2019-05-22T08:29:18.372Z,6.80
2019-05-22T08:30:18.389Z,6.30
2019-05-22T08:31:18.343Z,5.80
2019-05-22T08:32:18.351Z,6.00
2019-05-22T08:33:18.384Z,6.30
2019-05-22T08:34:18.335Z,5.60
2019-05-22T08:35:18.345Z,5.90
2019-05-22T08:36:18.308Z,6.00
2019-05-22T08:37:18.306Z,6.60
2019-05-22T08:38:18.850Z,6.00
2019-05-22T08:39:23.451Z,6.20
2019-05-22T08:40:18.465Z,6.40
2019-05-22T08:41:18.306Z,5.90
2019-05-22T08:42:18.346Z,6.60
2019-05-22T08:43:18.329Z,6.30
2019-05-22T08:44:18.216Z,6.00
2019-05-22T08:45:18.197Z,6.70
2019-05-22T08:46:18.191Z,6.30
2019-05-22T08:47:18.505Z,6.20
2019-05-22T08:48:18.241Z,6.20
2019-05-22T08:49:18.167Z,6.20
2019-05-22T08:50:18.144Z,6.70
2019-05-22T08:51:18.132Z,5.90
2019-05-22T08:52:23.640Z,5.70
2019-05-22T08:53:19.145Z,6.50
2019-05-22T08:54:18.100Z,5.90
2019-05-22T08:55:18.092Z,5.90
2019-05-22T08:56:18.084Z,6.20
2019-05-22T08:57:18.070Z,5.60
2019-05-22T08:58:18.054Z,5.40
2019-05-22T08:59:19.926Z,6.40
2019-05-22T09:00:18.039Z,6.40
2019-05-22T09:01:18.023Z,6.10
2019-05-22T09:02:18.021Z,6.30
2019-05-22T09:03:17.998Z,5.60
2019-05-22T09:04:17.992Z,7.00
2019-05-22T09:05:21.263Z,6.30
2019-05-22T09:06:18.015Z,6.50
2019-05-22T09:07:17.979Z,6.50
2019-05-22T09:08:17.960Z,6.30
2019-05-22T09:09:17.963Z,6.40
2019-05-22T09:10:17.963Z,6.00
2019-05-22T09:11:17.918Z,6.40
2019-05-22T09:12:17.922Z,6.20
2019-05-22T09:13:17.920Z,6.10
2019-05-22T09:14:17.938Z,6.20
2019-05-22T09:15:17.872Z,5.60
2019-05-22T09:16:17.906Z,5.70
2019-05-22T09:17:17.919Z,5.30
2019-05-22T09:18:17.850Z,5.10
2019-05-22T09:19:17.844Z,5.60
2019-05-22T09:20:17.824Z,5.80
2019-05-22T09:21:17.874Z,5.70
2019-05-22T09:22:17.824Z,4.80
2019-05-22T09:23:17.851Z,5.50
2019-05-22T09:24:17.802Z,5.50
2019-05-22T09:25:17.771Z,5.40
2019-05-22T09:26:17.750Z,5.20
2019-05-22T09:27:17.770Z,6.00
2019-05-22T09:28:17.748Z,5.60
2019-05-22T09:29:17.750Z,6.80
2019-05-22T09:30:17.721Z,7.50
2019-05-22T09:31:17.720Z,6.90
2019-05-22T09:32:17.698Z,7.10
2019-05-22T09:33:17.682Z,7.00
2019-05-22T09:34:17.686Z,7.40
2019-05-22T09:35:17.679Z,7.10
2019-05-22T09:36:17.664Z,7.30
2019-05-22T09:37:17.662Z,7.00
2019-05-22T09:38:17.627Z,7.50
2019-05-22T09:39:17.628Z,7.20
2019-05-22T09:40:17.613Z,7.40
2019-05-22T09:41:17.611Z,8.00
2019-05-22T09:42:17.623Z,7.40
2019-05-22T09:43:17.575Z,6.30
2019-05-22T09:44:17.610Z,6.70
2019-05-22T09:45:17.551Z,7.30
2019-05-22T09:46:17.530Z,6.40
2019-05-22T09:47:17.539Z,6.50
2019-05-22T09:48:17.507Z,5.90
2019-05-22T09:49:17.499Z,6.50
2019-05-22T09:50:17.529Z,6.50
2019-05-22T09:51:17.492Z,7.00
2019-05-22T09:52:17.513Z,6.50
2019-05-22T09:53:17.471Z,6.00
2019-05-22T09:54:17.453Z,6.10
2019-05-22T09:55:17.470Z,7.30
2019-05-22T09:56:17.418Z,6.30
2019-05-22T09:57:17.450Z,6.80
2019-05-22T09:58:17.476Z,6.90
2019-05-22T09:59:17.403Z,6.70
2019-05-22T10:00:17.388Z,6.40
2019-05-22T10:01:17.372Z,6.50
2019-05-22T10:02:17.379Z,6.40
2019-05-22T10:03:17.369Z,6.60
2019-05-22T10:04:17.348Z,5.90
2019-05-22T10:05:18.376Z,6.50
2019-05-22T10:06:17.319Z,5.90
2019-05-22T10:07:17.306Z,5.70
2019-05-22T10:08:17.291Z,5.50
2019-05-22T10:09:17.314Z,5.60
2019-05-22T10:10:17.278Z,6.30
2019-05-22T10:11:17.260Z,6.10
2019-05-22T10:12:17.332Z,6.30
2019-05-22T10:13:17.414Z,5.90
2019-05-22T10:14:17.247Z,6.70
2019-05-22T10:15:17.234Z,6.90
2019-05-22T10:16:17.227Z,6.40
2019-05-22T10:17:17.205Z,6.70
2019-05-22T10:18:17.185Z,6.40
2019-05-22T10:19:17.202Z,6.30
2019-05-22T10:20:17.202Z,5.90
2019-05-22T10:21:17.148Z,5.70
2019-05-22T10:22:17.163Z,6.10
2019-05-22T10:23:17.143Z,5.80
2019-05-22T10:24:17.130Z,6.40
2019-05-22T10:25:17.447Z,5.70
2019-05-22T10:26:17.136Z,5.40
2019-05-22T10:27:17.104Z,4.80
2019-05-22T10:28:17.085Z,4.80
2019-05-22T10:29:17.097Z,4.60
2019-05-22T10:30:17.062Z,4.60
2019-05-22T10:31:17.920Z,4.40
2019-05-22T10:32:17.051Z,4.70
2019-05-22T10:33:17.049Z,5.20
2019-05-22T10:34:17.035Z,5.20
2019-05-22T10:35:17.010Z,5.30
2019-05-22T10:36:17.043Z,5.30
2019-05-22T10:37:17.021Z,5.30
2019-05-22T10:38:16.972Z,5.00
2019-05-22T10:39:16.962Z,5.60
2019-05-22T10:40:16.963Z,4.90
2019-05-22T10:41:16.945Z,5.10
2019-05-22T10:42:16.974Z,5.30
2019-05-22T10:43:17.017Z,5.00
2019-05-22T10:44:16.914Z,5.80
2019-05-22T10:45:16.926Z,5.40
2019-05-22T10:46:16.889Z,5.40
2019-05-22T10:47:18.769Z,4.80
2019-05-22T10:48:16.874Z,5.40
2019-05-22T10:49:16.862Z,5.70
2019-05-22T10:50:16.862Z,5.80
2019-05-22T10:51:16.842Z,5.40
2019-05-22T10:52:16.825Z,6.00
2019-05-22T10:53:32.353Z,5.80
2019-05-22T10:54:17.812Z,6.00
2019-05-22T10:55:16.844Z,5.40
2019-05-22T10:56:16.797Z,5.60
2019-05-22T10:57:16.773Z,6.30
2019-05-22T10:58:16.789Z,5.90
2019-05-22T10:59:16.743Z,5.90
2019-05-22T11:00:16.786Z,6.00
2019-05-22T11:01:16.736Z,6.40
2019-05-22T11:02:16.713Z,6.40
2019-05-22T11:03:16.709Z,6.90
2019-05-22T11:04:19.301Z,6.60
2019-05-22T11:05:16.711Z,6.40
2019-05-22T11:06:16.703Z,6.70
2019-05-22T11:07:16.676Z,6.20
2019-05-22T11:08:16.681Z,6.60
2019-05-22T11:09:16.646Z,6.30
2019-05-22T11:10:16.632Z,6.40
2019-05-22T11:11:16.674Z,6.30
2019-05-22T11:12:16.603Z,5.80
2019-05-22T11:13:16.606Z,6.70
2019-05-22T11:14:16.589Z,6.10
2019-05-22T11:15:16.572Z,6.60
2019-05-22T11:16:16.603Z,6.70
2019-05-22T11:17:16.566Z,6.40
2019-05-22T11:18:16.555Z,6.30
2019-05-22T11:19:16.533Z,6.60
2019-05-22T11:20:16.536Z,6.90
2019-05-22T11:21:16.530Z,7.00
2019-05-22T11:22:16.527Z,6.90
2019-05-22T11:23:16.499Z,7.10
2019-05-22T11:24:16.494Z,7.20
2019-05-22T11:25:16.473Z,6.90
2019-05-22T11:26:16.467Z,6.40
2019-05-22T11:27:16.471Z,5.90
2019-05-22T11:28:16.455Z,6.40
2019-05-22T11:29:16.464Z,6.20
2019-05-22T11:30:16.419Z,6.80
2019-05-22T11:31:16.406Z,6.60
2019-05-22T11:32:16.419Z,6.70
2019-05-22T11:33:16.395Z,6.60
2019-05-22T11:34:16.387Z,6.40
2019-05-22T11:35:16.379Z,6.50
2019-05-22T11:36:16.356Z,6.80
2019-05-22T11:37:16.380Z,6.20
2019-05-22T11:38:16.353Z,6.60
2019-05-22T11:39:16.333Z,6.50
2019-05-22T11:40:16.329Z,6.40
2019-05-22T11:41:16.319Z,6.30
2019-05-22T11:42:16.310Z,6.50
2019-05-22T11:43:16.294Z,6.40
2019-05-22T11:44:16.280Z,6.10
2019-05-22T11:45:16.294Z,5.70
2019-05-22T11:46:16.267Z,5.70
2019-05-22T11:47:16.273Z,6.10
2019-05-22T11:48:16.321Z,5.70
2019-05-22T11:49:17.669Z,5.30
2019-05-22T11:50:16.234Z,5.40
2019-05-22T11:51:16.218Z,5.70
2019-05-22T11:52:16.226Z,5.60
2019-05-22T11:53:16.271Z,5.90
2019-05-22T11:54:16.206Z,6.10
2019-05-22T11:55:16.166Z,6.70
2019-05-22T15:41:40.715Z,5.30
2019-05-22T15:42:40.744Z,5.40
2019-05-22T15:43:40.681Z,4.90
2019-05-22T15:44:40.677Z,4.80
2019-05-22T15:45:40.676Z,4.70
2019-05-22T15:46:40.766Z,5.00
2019-05-22T15:47:53.616Z,4.70
2019-05-22T15:48:41.670Z,4.80
2019-05-22T15:49:40.672Z,5.10
2019-05-22T15:50:40.621Z,5.20
2019-05-22T15:51:40.604Z,5.00
2019-05-22T15:52:40.579Z,5.00
2019-05-22T15:53:40.568Z,4.90
2019-05-22T15:54:40.603Z,5.20
2019-05-22T15:55:40.563Z,5.50
2019-05-22T15:56:40.540Z,5.00
2019-05-22T15:57:40.561Z,5.40
2019-05-22T15:58:40.527Z,5.50
2019-05-22T15:59:40.553Z,4.90
2019-05-22T16:00:40.516Z,5.00
2019-05-22T16:01:40.490Z,4.90
2019-05-22T16:02:40.478Z,5.00
2019-05-22T16:03:40.487Z,4.60
2019-05-22T16:04:40.448Z,4.70
2019-05-22T16:05:40.472Z,5.10
2019-05-22T16:06:40.432Z,4.80
2019-05-22T16:07:40.412Z,4.80
2019-05-22T16:08:40.408Z,5.20
2019-05-22T16:09:40.418Z,5.30
2019-05-22T16:10:40.414Z,5.20
2019-05-22T16:11:40.381Z,4.90
2019-05-22T16:12:40.375Z,5.20
2019-05-22T16:13:40.348Z,5.30
2019-05-22T16:14:40.351Z,4.80
2019-05-22T16:15:40.359Z,5.20
2019-05-22T16:16:40.326Z,5.00
2019-05-22T16:17:41.668Z,4.80
2019-05-22T16:18:40.315Z,4.80
2019-05-22T16:19:40.283Z,5.00
2019-05-22T16:20:40.339Z,4.90
2019-05-22T16:21:40.277Z,4.20
2019-05-22T16:22:40.255Z,4.60
2019-05-22T16:23:40.344Z,5.00
2019-05-22T16:24:40.241Z,4.80
2019-05-22T16:25:40.232Z,5.20
2019-05-22T16:26:40.209Z,5.00
2019-05-22T16:27:40.214Z,4.60
2019-05-22T16:28:40.192Z,4.80
2019-05-22T16:29:40.213Z,5.20
2019-05-22T16:30:40.172Z,5.10
2019-05-22T16:31:40.159Z,5.00
2019-05-22T16:32:40.155Z,5.30
2019-05-22T16:33:40.131Z,4.30
2019-05-22T16:34:40.142Z,5.10
2019-05-22T16:35:40.123Z,4.30
2019-05-22T16:36:40.101Z,4.80
2019-05-22T16:37:40.123Z,5.20
2019-05-22T16:38:40.085Z,5.30
2019-05-22T16:39:40.081Z,4.50
2019-05-22T16:40:40.078Z,4.40
2019-05-22T16:41:40.067Z,4.70
2019-05-22T16:42:40.045Z,4.70
2019-05-22T16:43:49.093Z,4.60
2019-05-22T16:44:41.026Z,4.70
2019-05-22T16:45:40.031Z,4.60
2019-05-22T16:46:40.004Z,4.90
2019-05-22T16:47:39.995Z,5.40
2019-05-22T16:48:39.980Z,4.70
2019-05-22T16:49:39.974Z,4.40